Time;durP1;ratioP1;P1;durP2;ratioP2;P2;SDS_P1;SDS_P2;PMS_P1;PMS_P2;Temp;Humidity;BMP_temperature;BMP_pressure;BME280_temperature;BME280_humidity;BME280_pressure;Samples;Min_cycle;Max_cycle;Signal;HPM_P1;HPM_P2
2023/05/26 00:02:19;;;;;;;44.10;28.90;;;;;;;16.04;100.00;99345.88;105254;1266;60418;-70
2023/05/26 00:04:46;;;;;;;58.80;37.80;;;;;;;16.07;100.00;99343.73;105195;1265;74327;-72
2023/05/26 00:07:15;;;;;;;45.50;30.10;;;;;;;16.61;100.00;99342.89;105237;1260;68414;-71
2023/05/26 00:09:42;;;;;;;16.00;12.30;;;;;;;18.67;100.00;99354.08;105666;1255;73186;-72
2023/05/26 00:12:09;;;;;;;123.80;78.10;;;;;;;19.17;100.00;99356.79;105794;1255;61849;-70
2023/05/26 00:14:55;;;;;;;15.30;12.20;;;;;;;19.36;100.00;99360.46;105721;1254;60469;-71
2023/05/26 00:17:22;;;;;;;14.90;9.30;;;;;;;19.51;100.00;99359.05;105752;1257;73787;-70
2023/05/26 00:19:52;;;;;;;14.60;9.40;;;;;;;19.58;100.00;99359.45;105719;1257;69153;-71
2023/05/26 00:22:19;;;;;;;15.20;8.80;;;;;;;19.59;100.00;99357.80;105697;1262;72411;-71
2023/05/26 00:24:46;;;;;;;11.00;9.80;;;;;;;19.72;100.00;99360.69;105758;1257;61739;-71
2023/05/26 00:27:13;;;;;;;12.40;9.50;;;;;;;19.67;100.00;99357.70;105763;1257;60456;-71
2023/05/26 00:29:41;;;;;;;11.20;9.30;;;;;;;19.70;100.00;99348.98;105756;1258;73528;-71
2023/05/26 00:32:08;;;;;;;11.70;10.30;;;;;;;19.74;100.00;99346.66;105780;1257;67505;-69
2023/05/26 00:34:35;;;;;;;15.40;11.00;;;;;;;19.66;100.00;99349.41;105781;1254;73088;-71
2023/05/26 00:37:04;;;;;;;17.30;12.00;;;;;;;19.44;100.00;99349.34;105791;1254;61894;-72
2023/05/26 00:39:31;;;;;;;17.00;14.80;;;;;;;16.50;100.00;99333.66;105724;1257;60537;-70
2023/05/26 00:41:58;;;;;;;28.80;23.20;;;;;;;15.87;100.00;99328.80;105829;1254;74368;-71
2023/05/26 00:44:26;;;;;;;48.10;36.20;;;;;;;15.71;100.00;99326.61;105708;1258;68619;-70
2023/05/26 00:46:52;;;;;;;48.80;32.40;;;;;;;15.60;100.00;99325.02;105774;1259;73101;-71
2023/05/26 00:49:20;;;;;;;38.20;31.30;;;;;;;15.51;100.00;99324.12;105725;1255;62232;-70
2023/05/26 00:51:47;;;;;;;44.40;35.40;;;;;;;15.41;100.00;99324.79;105815;1253;60408;-70
2023/05/26 00:54:16;;;;;;;50.70;35.20;;;;;;;15.44;100.00;99323.18;105673;1259;73546;-69
2023/05/26 00:56:43;;;;;;;54.60;40.90;;;;;;;15.46;100.00;99319.65;105729;1254;69184;-69
2023/05/26 00:59:13;;;;;;;76.50;50.60;;;;;;;15.35;100.00;99316.48;105692;1258;72894;-69
2023/05/26 01:01:41;;;;;;;114.40;77.10;;;;;;;15.33;100.00;99316.62;105665;1261;60533;-68
2023/05/26 01:04:09;;;;;;;68.90;42.80;;;;;;;15.35;100.00;99314.27;105713;1259;61822;-69
2023/05/26 01:06:40;;;;;;;124.30;69.70;;;;;;;15.48;100.00;99311.83;105660;1259;73742;-68
2023/05/26 01:09:07;;;;;;;41.10;26.10;;;;;;;15.55;100.00;99307.77;105728;1254;69541;-69
2023/05/26 01:11:40;;;;;;;92.00;51.50;;;;;;;15.57;100.00;99312.35;105726;1257;72651;-69
2023/05/26 01:14:28;;;;;;;82.20;48.90;;;;;;;16.16;100.00;99316.32;105761;1254;61861;-70
2023/05/26 01:16:58;;;;;;;47.90;30.90;;;;;;;17.95;100.00;99329.93;105723;1254;60409;-69
2023/05/26 01:19:37;;;;;;;56.70;35.00;;;;;;;18.13;100.00;99330.86;105768;1257;73721;-69
2023/05/26 01:22:34;;;;;;;36.20;28.30;;;;;;;18.15;100.00;99329.57;105574;1260;69160;-69
2023/05/26 01:25:19;;;;;;;36.20;25.40;;;;;;;18.20;100.00;99328.02;105224;1265;72970;-70
2023/05/26 01:28:09;;;;;;;25.70;21.80;;;;;;;18.47;100.00;99330.99;105063;1267;61682;-69
2023/05/26 01:30:36;;;;;;;60.20;36.70;;;;;;;18.59;100.00;99331.67;105189;1266;62454;-69
2023/05/26 01:33:03;;;;;;;53.10;37.90;;;;;;;15.81;100.00;99315.34;105112;1266;74168;-70
2023/05/26 01:35:30;;;;;;;52.60;35.70;;;;;;;15.05;100.00;99319.13;105225;1264;67773;-69
2023/05/26 01:37:56;;;;;;;38.60;23.60;;;;;;;14.94;100.00;99318.79;105199;1266;73334;-69
2023/05/26 01:40:23;;;;;;;37.30;26.10;;;;;;;14.89;100.00;99317.81;105233;1264;62168;-69
2023/05/26 01:43:29;;;;;;;77.30;50.80;;;;;;;14.85;100.00;99317.54;105226;1264;61501;-71
2023/05/26 01:45:59;;;;;;;48.30;35.30;;;;;;;14.82;100.00;99318.65;104823;1273;74329;-67
2023/05/26 01:48:26;;;;;;;;;;;;;;;14.81;100.00;99321.52;104852;1271;69110;-69
2023/05/26 01:50:56;;;;;;;70.50;47.80;;;;;;;14.80;100.00;99319.27;104770;1273;73249;-69
2023/05/26 01:53:26;;;;;;;56.00;42.90;;;;;;;16.05;100.00;99324.20;104779;1267;61908;-67
2023/05/26 01:55:56;;;;;;;248.00;138.00;;;;;;;16.96;100.00;99324.55;104796;1267;60619;-72
2023/05/26 01:58:23;;;;;;;91.80;56.70;;;;;;;17.17;100.00;99323.86;105319;1273;74287;-69
2023/05/26 02:00:52;;;;;;;96.30;60.00;;;;;;;16.54;100.00;99322.04;105647;1267;69245;-70
2023/05/26 02:03:21;;;;;;;39.60;29.50;;;;;;;14.97;100.00;99318.52;105108;1270;73340;-71
2023/05/26 02:05:48;;;;;;;31.20;23.90;;;;;;;14.80;100.00;99321.69;105311;1260;61684;-75
2023/05/26 02:08:15;;;;;;;24.30;18.60;;;;;;;14.76;100.00;99315.30;105125;1266;60531;-70
2023/05/26 02:10:42;;;;;;;21.80;16.80;;;;;;;14.83;100.00;99317.49;105108;1274;74267;-70
2023/05/26 02:13:09;;;;;;;19.90;15.50;;;;;;;14.91;100.00;99314.83;105155;1260;69067;-70
2023/05/26 02:15:37;;;;;;;18.60;15.20;;;;;;;14.91;100.00;99317.62;105122;1266;72572;-70
2023/05/26 02:18:04;;;;;;;27.50;22.50;;;;;;;15.07;100.00;99319.38;105113;1261;61709;-69
2023/05/26 02:20:31;;;;;;;24.20;16.00;;;;;;;15.13;100.00;99321.91;105214;1265;60553;-70
2023/05/26 02:22:58;;;;;;;25.40;17.20;;;;;;;15.14;100.00;99323.14;105418;1265;72492;-67
2023/05/26 02:25:25;;;;;;;19.80;16.60;;;;;;;15.19;100.00;99325.45;105693;1254;68494;-69
2023/05/26 02:27:52;;;;;;;19.40;16.40;;;;;;;15.65;100.00;99329.88;105626;1260;73031;-69
2023/05/26 02:30:19;;;;;;;27.00;18.70;;;;;;;15.18;100.00;99329.36;105683;1254;61785;-70
2023/05/26 02:32:46;;;;;;;22.10;17.10;;;;;;;15.16;100.00;99339.11;105698;1254;60491;-69
2023/05/26 02:35:13;;;;;;;105.40;67.50;;;;;;;15.14;100.00;99336.98;105688;1257;73396;-68
2023/05/26 02:37:41;;;;;;;45.50;31.00;;;;;;;15.10;100.00;99338.27;105690;1254;69043;-70
2023/05/26 02:40:09;;;;;;;78.20;45.70;;;;;;;15.12;100.00;99345.38;105676;1254;73131;-70
2023/05/26 02:42:36;;;;;;;101.80;61.90;;;;;;;15.28;100.00;99344.27;105726;1257;60734;-69
2023/05/26 02:45:04;;;;;;;53.00;34.10;;;;;;;15.20;100.00;99351.45;105686;1255;60562;-69
2023/05/26 02:47:34;;;;;;;52.20;33.90;;;;;;;15.38;100.00;99351.81;105656;1257;73802;-70
2023/05/26 02:50:01;;;;;;;31.30;22.50;;;;;;;16.10;100.00;99355.36;105714;1254;68435;-68
2023/05/26 02:52:32;;;;;;;26.10;18.40;;;;;;;17.96;100.00;99365.64;105703;1254;72570;-71
2023/05/26 02:54:58;;;;;;;33.80;23.60;;;;;;;18.30;100.00;99370.86;105679;1254;61637;-70
2023/05/26 02:57:25;;;;;;;27.60;20.10;;;;;;;18.59;100.00;99373.17;105653;1254;61455;-68
2023/05/26 02:59:52;;;;;;;23.30;16.40;;;;;;;17.16;100.00;99365.47;105596;1259;74401;-68
2023/05/26 03:02:19;;;;;;;26.00;18.30;;;;;;;16.04;100.00;99359.58;105681;1254;69244;-67
2023/05/26 03:04:46;;;;;;;17.60;14.00;;;;;;;16.03;100.00;99360.40;105675;1256;72987;-70
2023/05/26 03:07:13;;;;;;;24.00;16.20;;;;;;;16.03;100.00;99359.70;105727;1254;61933;-70
2023/05/26 03:09:40;;;;;;;18.00;13.80;;;;;;;16.18;100.00;99365.27;105698;1253;60512;-70
2023/05/26 03:12:07;;;;;;;14.30;12.60;;;;;;;16.18;100.00;99365.52;105701;1258;73714;-68
2023/05/26 03:14:35;;;;;;;12.70;10.70;;;;;;;16.22;100.00;99367.59;105299;1254;68645;-69
2023/05/26 03:17:02;;;;;;;17.50;10.30;;;;;;;16.27;100.00;99371.17;105696;1257;73103;-68
2023/05/26 03:19:29;;;;;;;15.20;11.90;;;;;;;17.67;100.00;99376.92;105787;1254;61696;-68
2023/05/26 03:21:56;;;;;;;15.60;11.70;;;;;;;18.86;100.00;99385.99;105714;1254;60536;-70
2023/05/26 03:24:44;;;;;;;15.30;11.10;;;;;;;17.74;100.00;99383.55;105672;1258;74069;-69
2023/05/26 03:27:12;;;;;;;13.80;11.00;;;;;;;16.93;100.00;99380.90;105742;1254;68616;-71
2023/05/26 03:29:39;;;;;;;12.50;9.60;;;;;;;17.18;100.00;99382.05;105700;1257;73239;-69
2023/05/26 03:32:08;;;;;;;14.50;10.60;;;;;;;17.38;100.00;99384.84;105655;1254;61906;-71
2023/05/26 03:34:39;;;;;;;13.10;10.50;;;;;;;17.46;100.00;99383.61;105726;1260;60470;-70
2023/05/26 03:37:06;;;;;;;11.00;9.80;;;;;;;17.60;100.00;99386.35;105707;1257;74419;-70
2023/05/26 03:39:34;;;;;;;12.30;9.80;;;;;;;17.78;100.00;99388.80;105670;1255;69077;-68
2023/05/26 03:42:02;;;;;;;12.40;10.00;;;;;;;18.00;100.00;99391.30;105719;1257;73256;-68
2023/05/26 03:44:32;;;;;;;15.20;10.80;;;;;;;19.13;99.73;99398.73;105718;1254;60850;-69
2023/05/26 03:46:59;;;;;;;13.80;11.20;;;;;;;19.91;95.97;99402.85;105759;1254;60540;-69
2023/05/26 03:49:26;;;;;;;11.70;10.50;;;;;;;20.79;90.26;99399.48;105757;1257;74167;-68
2023/05/26 03:51:54;;;;;;;11.30;9.90;;;;;;;21.28;85.08;99400.31;105775;1254;69143;-69
2023/05/26 03:54:20;;;;;;;11.00;8.80;;;;;;;21.49;84.41;99401.27;105571;1254;73098;-69
2023/05/26 03:56:47;;;;;;;14.90;9.50;;;;;;;21.88;84.99;99405.18;105589;1260;61562;-68
2023/05/26 03:59:15;;;;;;;14.60;10.20;;;;;;;22.29;80.03;99409.30;105716;1254;60428;-68
2023/05/26 04:01:42;;;;;;;14.60;9.60;;;;;;;22.59;77.00;99412.99;105685;1258;74343;-68
2023/05/26 04:04:09;;;;;;;13.60;9.40;;;;;;;22.65;79.39;99416.73;105709;1257;68885;-67
2023/05/26 04:06:37;;;;;;;12.30;8.50;;;;;;;22.88;80.00;99418.16;105720;1254;73042;-67
2023/05/26 04:09:08;;;;;;;12.10;8.00;;;;;;;22.72;77.27;99413.27;105618;1254;61561;-70
2023/05/26 04:11:35;;;;;;;14.50;9.10;;;;;;;23.18;73.72;99413.05;105597;1254;110042;-68
2023/05/26 04:14:02;;;;;;;11.00;7.80;;;;;;;24.09;65.97;99422.95;105689;1259;73058;-68
2023/05/26 04:16:30;;;;;;;10.40;7.70;;;;;;;24.30;64.67;99422.11;105740;1254;68753;-68
2023/05/26 04:18:57;;;;;;;8.40;7.50;;;;;;;24.38;59.64;99422.98;105642;1262;73206;-67
2023/05/26 04:21:27;;;;;;;8.40;6.80;;;;;;;24.58;57.51;99422.20;105712;1254;60443;-72
2023/05/26 04:23:55;;;;;;;11.70;7.80;;;;;;;25.02;55.65;99423.38;105790;1253;60443;-70
2023/05/26 04:26:24;;;;;;;10.10;7.50;;;;;;;25.39;53.57;99422.25;105664;1256;74292;-70
2023/05/26 04:29:18;;;;;;;7.70;6.90;;;;;;;25.73;51.60;99429.87;105463;1257;69008;-64
2023/05/26 04:32:21;;;;;;;8.70;7.00;;;;;;;26.09;49.03;99435.08;105460;1254;73025;-67
2023/05/26 04:35:11;;;;;;;9.90;7.00;;;;;;;26.53;47.23;99438.33;105650;1254;60507;-66
2023/05/26 04:37:40;;;;;;;9.20;6.30;;;;;;;26.57;46.49;99440.77;105689;1259;60508;-67
2023/05/26 04:40:09;;;;;;;8.90;6.60;;;;;;;26.65;46.46;99445.33;105602;1262;74715;-67
2023/05/26 04:42:38;;;;;;;8.10;6.80;;;;;;;26.89;44.81;99444.59;105742;1257;67225;-67
2023/05/26 04:45:06;;;;;;;11.20;7.00;;;;;;;27.21;44.04;99445.16;105726;1259;72586;-67
2023/05/26 04:47:37;;;;;;;10.40;7.60;;;;;;;27.52;43.08;99446.20;105651;1253;60599;-68
2023/05/26 04:50:06;;;;;;;10.00;7.20;;;;;;;27.65;42.33;99447.83;105708;1254;60333;-68
2023/05/26 04:52:33;;;;;;;9.00;7.70;;;;;;;27.62;41.83;99447.23;105678;1257;73859;-70
2023/05/26 04:55:00;;;;;;;9.20;7.00;;;;;;;27.78;42.09;99449.29;105707;1254;69219;-68
2023/05/26 04:57:27;;;;;;;9.80;7.00;;;;;;;28.24;41.67;99454.27;105669;1254;73034;-68
2023/05/26 04:59:55;;;;;;;7.00;6.40;;;;;;;26.77;43.36;99447.45;105665;1254;60523;-69
2023/05/26 05:02:22;;;;;;;7.90;7.00;;;;;;;24.66;48.40;99443.28;105667;1254;61456;-68
2023/05/26 05:05:18;;;;;;;8.20;6.60;;;;;;;24.71;50.87;99441.88;105602;1257;74310;-69
2023/05/26 05:07:49;;;;;;;8.90;6.60;;;;;;;25.92;46.70;99446.08;105800;1254;69115;-69
2023/05/26 05:10:17;;;;;;;8.40;7.30;;;;;;;26.27;44.12;99445.11;105639;1254;72979;-69
2023/05/26 05:12:46;;;;;;;9.50;7.30;;;;;;;26.40;44.26;99449.16;105758;1253;60518;-71
2023/05/26 05:15:15;;;;;;;8.30;6.80;;;;;;;26.72;43.14;99452.15;105739;1254;60332;-72
2023/05/26 05:17:42;;;;;;;9.20;7.80;;;;;;;26.73;42.26;99456.02;105746;1257;74249;-68
2023/05/26 05:20:10;;;;;;;8.70;7.80;;;;;;;26.79;42.59;99457.79;105777;1254;69022;-66
2023/05/26 05:22:47;;;;;;;13.20;9.30;;;;;;;26.98;42.26;99457.12;105848;1254;73182;-68
2023/05/26 05:25:17;;;;;;;13.70;8.60;;;;;;;27.07;41.98;99458.77;105760;1254;60889;-67
2023/05/26 05:27:44;;;;;;;10.70;8.30;;;;;;;27.14;41.73;99464.14;105692;1253;60478;-71
2023/05/26 05:30:11;;;;;;;13.20;9.00;;;;;;;27.29;42.71;99460.73;105733;1257;74372;-70
2023/05/26 05:32:39;;;;;;;9.90;8.50;;;;;;;27.69;42.28;99464.27;105729;1254;68676;-68
2023/05/26 05:35:08;;;;;;;10.40;8.80;;;;;;;27.88;40.81;99465.98;105715;1254;72990;-71
2023/05/26 05:37:38;;;;;;;15.30;10.20;;;;;;;28.00;41.61;99465.45;105879;1259;60435;-67
2023/05/26 05:40:07;;;;;;;13.00;9.30;;;;;;;28.18;42.06;99465.29;105707;1253;60470;-70
2023/05/26 05:42:35;;;;;;;13.70;9.40;;;;;;;28.41;40.78;99465.84;105746;1257;73950;-69
2023/05/26 05:45:05;;;;;;;15.00;10.20;;;;;;;28.51;40.12;99466.83;105765;1253;68759;-69
2023/05/26 05:47:55;;;;;;;18.10;10.40;;;;;;;28.82;39.52;99468.99;105605;1254;72639;-68
2023/05/26 05:50:22;;;;;;;13.70;9.80;;;;;;;29.10;39.30;99469.98;105652;1254;60460;-68
2023/05/26 05:52:50;;;;;;;11.30;9.40;;;;;;;29.27;39.26;99473.30;105701;1253;60458;-68
2023/05/26 05:55:17;;;;;;;11.30;7.90;;;;;;;29.29;38.59;99474.91;105707;1258;74089;-71
2023/05/26 05:57:44;;;;;;;10.30;7.60;;;;;;;29.20;38.10;99477.98;105736;1257;68569;-72
2023/05/26 06:00:12;;;;;;;12.50;8.10;;;;;;;29.14;38.02;99479.59;105696;1257;72575;-68
2023/05/26 06:02:42;;;;;;;11.00;7.50;;;;;;;29.37;38.08;99480.33;105682;1254;61655;-70
2023/05/26 06:05:09;;;;;;;12.00;8.20;;;;;;;29.90;38.25;99477.28;105683;1256;60623;-69
2023/05/26 06:07:36;;;;;;;9.00;7.60;;;;;;;30.13;37.23;99474.47;105677;1259;74242;-69
2023/05/26 06:10:04;;;;;;;13.00;8.40;;;;;;;30.19;36.64;99478.86;105653;1253;69594;-69
2023/05/26 06:12:31;;;;;;;13.10;7.10;;;;;;;30.20;36.47;99477.84;105676;1259;72458;-69
2023/05/26 06:14:58;;;;;;;8.50;7.60;;;;;;;30.60;36.71;99481.80;105692;1257;60431;-70
2023/05/26 06:17:25;;;;;;;9.20;7.30;;;;;;;31.06;35.70;99486.84;105689;1253;60462;-70
2023/05/26 06:19:53;;;;;;;11.80;7.50;;;;;;;31.35;35.41;99491.55;105711;1259;65163;-72
2023/05/26 06:22:20;;;;;;;11.20;7.70;;;;;;;31.70;35.78;99490.77;105637;1254;68541;-69
2023/05/26 06:24:47;;;;;;;9.40;7.70;;;;;;;31.49;34.44;99494.34;105679;1253;73053;-69
2023/05/26 06:27:15;;;;;;;10.30;7.70;;;;;;;31.05;34.89;99491.84;105214;1257;60672;-69
2023/05/26 06:29:43;;;;;;;13.70;8.20;;;;;;;28.42;38.70;99474.36;105754;1253;60454;-69
2023/05/26 06:32:11;;;;;;;11.40;8.40;;;;;;;26.90;43.02;99471.13;105679;1253;73830;-70
2023/05/26 06:34:39;;;;;;;11.60;9.00;;;;;;;26.71;43.09;99468.95;105678;1253;69323;-68
2023/05/26 06:37:05;;;;;;;10.70;9.40;;;;;;;26.75;44.08;99467.86;105696;1254;73150;-69
2023/05/26 06:39:34;;;;;;;15.40;10.60;;;;;;;26.64;43.52;99467.55;105726;1254;60430;-67
2023/05/26 06:42:02;;;;;;;15.20;12.50;;;;;;;26.15;43.95;99466.94;105718;1253;60399;-70
2023/05/26 06:44:29;;;;;;;;;;;;;;;26.23;44.81;99465.70;105597;1258;73740;-68
2023/05/26 06:46:56;;;;;;;11.90;9.20;;;;;;;27.03;43.99;99474.30;105598;1254;68964;-68
2023/05/26 06:49:26;;;;;;;11.50;10.30;;;;;;;27.74;42.46;99482.25;105743;1254;73074;-67
2023/05/26 06:51:58;;;;;;;9.70;8.70;;;;;;;27.58;43.33;99481.40;105670;1257;60425;-68
2023/05/26 06:54:25;;;;;;;9.70;7.70;;;;;;;27.29;45.14;99480.50;105695;1253;60421;-67
2023/05/26 06:56:53;;;;;;;13.00;8.90;;;;;;;26.78;46.58;99482.23;105680;1257;74578;-67
2023/05/26 06:59:20;;;;;;;16.90;9.50;;;;;;;26.75;45.73;99482.66;105696;1253;69179;-69
2023/05/26 07:01:47;;;;;;;22.40;17.20;;;;;;;27.46;44.65;99480.95;105654;1254;72995;-71
2023/05/26 07:04:14;;;;;;;16.90;11.40;;;;;;;27.26;45.30;99481.86;105706;1257;61019;-71
2023/05/26 07:06:42;;;;;;;14.60;10.20;;;;;;;27.24;46.57;99483.55;105696;1254;60450;-70
2023/05/26 07:09:14;;;;;;;16.50;12.50;;;;;;;27.38;48.30;99482.14;105702;1255;74327;-71
2023/05/26 07:11:55;;;;;;;10.90;8.90;;;;;;;27.71;46.24;99488.17;105684;1253;69210;-68
2023/05/26 07:14:46;;;;;;;12.90;8.90;;;;;;;27.66;45.56;99489.27;105578;1253;72413;-68
2023/05/26 07:17:14;;;;;;;10.50;9.40;;;;;;;27.58;46.21;99487.04;105679;1253;60492;-67
2023/05/26 07:19:43;;;;;;;10.10;6.70;;;;;;;27.66;44.82;99493.92;105587;1254;60445;-68
2023/05/26 07:22:09;;;;;;;8.10;7.10;;;;;;;27.43;44.49;99491.59;105702;1257;74191;-65
2023/05/26 07:24:43;;;;;;;8.80;6.60;;;;;;;27.57;44.03;99490.67;105755;1254;69121;-68
2023/05/26 07:27:12;;;;;;;9.10;7.00;;;;;;;27.58;45.04;99496.33;105572;1255;73246;-67
2023/05/26 07:29:39;;;;;;;8.70;6.50;;;;;;;27.61;44.22;99496.20;105644;1253;61000;-72
2023/05/26 07:32:06;;;;;;;;;;;;;;;27.73;43.66;99494.56;105662;1253;60626;-70
2023/05/26 07:34:33;;;;;;;;;;;;;;;29.58;41.24;99499.23;105722;1257;74626;-69
2023/05/26 07:37:00;;;;;;;19.30;12.80;;;;;;;30.43;39.36;99503.09;105658;1253;69132;-68
2023/05/26 07:39:27;;;;;;;15.00;10.50;;;;;;;30.78;37.81;99510.68;105757;1253;72981;-67
2023/05/26 07:41:53;;;;;;;7.70;5.40;;;;;;;30.77;36.91;99510.84;105668;1257;60507;-67
2023/05/26 07:44:22;;;;;;;32.00;27.10;;;;;;;30.52;37.42;99507.27;105694;1253;60405;-68
2023/05/26 07:46:49;;;;;;;8.50;6.40;;;;;;;30.53;36.84;99506.48;105756;1253;74296;-68
2023/05/26 07:49:16;;;;;;;10.00;6.00;;;;;;;30.60;36.71;99505.48;105736;1254;68978;-69
2023/05/26 07:51:42;;;;;;;9.80;5.30;;;;;;;30.74;36.17;99509.48;105645;1254;73126;-65
2023/05/26 07:54:09;;;;;;;13.50;5.60;;;;;;;29.38;37.16;99502.41;105694;1257;60472;-71
2023/05/26 07:56:36;;;;;;;8.40;5.00;;;;;;;29.67;37.29;99501.29;105703;1254;60425;-70
2023/05/26 07:59:03;;;;;;;9.50;5.00;;;;;;;30.31;36.12;99503.88;105742;1253;74144;-68
2023/05/26 08:01:32;;;;;;;8.30;5.60;;;;;;;31.20;35.96;99506.02;105602;1261;67996;-68
2023/05/26 08:03:59;;;;;;;19.60;13.60;;;;;;;31.42;34.72;99507.65;105687;1257;73144;-68
2023/05/26 08:06:26;;;;;;;8.80;5.00;;;;;;;31.29;33.94;99509.68;105603;1262;60582;-67
2023/05/26 08:08:54;;;;;;;6.30;4.20;;;;;;;31.04;32.42;99505.85;105695;1253;60537;-67
2023/05/26 08:11:22;;;;;;;8.10;4.60;;;;;;;29.94;34.57;99503.91;105709;1253;73567;-68
2023/05/26 08:13:49;;;;;;;23.40;19.90;;;;;;;29.15;36.25;99495.94;105716;1253;69004;-70
2023/05/26 08:16:16;;;;;;;33.00;29.40;;;;;;;29.37;35.51;99500.47;106011;1253;72936;-69
2023/05/26 08:18:43;;;;;;;14.70;7.90;;;;;;;29.45;34.99;99501.02;106365;1253;60398;-68
2023/05/26 08:21:10;;;;;;;7.20;5.60;;;;;;;29.44;35.56;99497.30;105721;1254;60412;-74
2023/05/26 08:23:37;;;;;;;7.80;4.70;;;;;;;29.90;34.55;99494.03;105699;1257;74154;-70
2023/05/26 08:26:08;;;;;;;;;;;;;;;29.85;34.50;99494.14;105713;1253;68692;-69
2023/05/26 08:28:35;;;;;;;5.20;3.60;;;;;;;29.50;34.45;99493.48;105406;1253;73177;-71
2023/05/26 08:31:02;;;;;;;4.90;4.40;;;;;;;30.81;31.45;99496.85;105650;1259;60924;-67
2023/05/26 08:33:29;;;;;;;9.20;4.40;;;;;;;30.93;31.62;99497.91;105658;1253;60460;-72
2023/05/26 08:35:55;;;;;;;8.20;3.90;;;;;;;31.39;30.89;99498.85;105685;1257;73676;-66
2023/05/26 08:38:23;;;;;;;5.20;4.30;;;;;;;31.93;30.81;99500.56;105630;1255;68972;-69
2023/05/26 08:40:51;;;;;;;7.40;4.70;;;;;;;31.77;30.51;99499.98;105707;1254;72623;-67
2023/05/26 08:43:19;;;;;;;28.30;19.60;;;;;;;30.20;31.94;99490.64;105784;1253;60351;-69
2023/05/26 08:45:50;;;;;;;12.20;8.20;;;;;;;29.90;32.81;99484.46;105723;1256;60416;-67
2023/05/26 08:48:17;;;;;;;5.10;4.40;;;;;;;30.11;32.07;99481.98;105615;1259;74395;-68
2023/05/26 08:50:43;;;;;;;7.50;3.90;;;;;;;30.29;31.48;99474.81;105667;1254;69215;-67
2023/05/26 08:53:11;;;;;;;5.40;4.10;;;;;;;30.23;31.21;99469.15;105643;1259;73067;-68
2023/05/26 08:55:38;;;;;;;;;;;;;;;30.31;31.88;99470.06;105691;1253;60843;-69
2023/05/26 08:58:04;;;;;;;5.70;4.30;;;;;;;30.39;30.78;99471.53;105737;1254;60399;-68
2023/05/26 09:00:32;;;;;;;8.90;4.20;;;;;;;30.29;30.23;99474.02;105670;1257;73684;-70
2023/05/26 09:03:01;;;;;;;6.90;4.50;;;;;;;29.93;31.62;99465.67;105732;1253;69491;-73
2023/05/26 09:05:31;;;;;;;8.70;4.50;;;;;;;29.64;32.22;99464.74;105744;1253;72325;-74
2023/05/26 09:07:58;;;;;;;;;;;;;;;29.31;32.10;99459.45;105755;1254;60743;-70
2023/05/26 09:10:33;;;;;;;8.50;4.50;;;;;;;28.83;31.90;99462.83;105679;1254;60517;-67
2023/05/26 09:13:10;;;;;;;12.20;5.90;;;;;;;28.27;33.58;99461.63;105708;1257;74248;-71
2023/05/26 09:15:37;;;;;;;6.60;5.70;;;;;;;27.96;33.89;99455.63;105725;1254;69410;-69
2023/05/26 09:18:09;;;;;;;10.90;5.20;;;;;;;27.94;33.78;99455.92;105705;1257;73258;-70
2023/05/26 09:20:40;;;;;;;6.20;4.70;;;;;;;29.83;31.58;99463.91;105346;1254;60556;-68
2023/05/26 09:23:07;;;;;;;8.80;5.50;;;;;;;30.98;30.62;99463.54;105713;1257;60460;-67
2023/05/26 09:25:35;;;;;;;9.80;5.00;;;;;;;31.49;30.09;99467.48;105776;1257;74119;-67
2023/05/26 09:28:07;;;;;;;7.40;5.20;;;;;;;31.11;28.55;99463.25;105757;1253;69489;-68
2023/05/26 09:30:35;;;;;;;8.90;4.90;;;;;;;30.98;29.62;99459.92;105746;1253;72538;-68
2023/05/26 09:33:04;;;;;;;14.50;6.70;;;;;;;31.02;30.27;99462.70;105717;1253;60703;-68
2023/05/26 09:35:38;;;;;;;6.20;5.00;;;;;;;30.98;29.57;99458.97;105731;1254;60623;-68
2023/05/26 09:38:06;;;;;;;9.00;4.70;;;;;;;31.00;29.67;99459.38;105722;1257;73778;-69
2023/05/26 09:40:33;;;;;;;11.90;5.70;;;;;;;31.04;30.27;99458.11;105719;1253;68541;-69
2023/05/26 09:43:00;;;;;;;10.50;5.30;;;;;;;31.16;29.99;99462.00;105716;1258;73179;-69
2023/05/26 09:45:37;;;;;;;6.90;5.10;;;;;;;31.39;29.93;99460.90;105686;1256;60361;-69
2023/05/26 09:48:05;;;;;;;5.30;4.60;;;;;;;31.33;28.71;99455.52;105677;1253;60467;-70
2023/05/26 09:50:33;;;;;;;9.60;5.90;;;;;;;31.68;28.45;99451.61;105687;1257;73949;-68
2023/05/26 09:53:00;;;;;;;;;;;;;;;31.98;28.49;99449.50;105688;1257;67562;-69
2023/05/26 09:55:30;;;;;;;6.10;4.60;;;;;;;31.80;28.18;99444.70;105631;1258;73129;-68
2023/05/26 09:58:07;;;;;;;9.40;4.70;;;;;;;31.83;28.31;99447.85;105719;1253;60540;-70
2023/05/26 10:00:35;;;;;;;5.60;4.90;;;;;;;31.53;28.74;99437.92;105670;1253;60450;-70
2023/05/26 10:03:05;;;;;;;7.00;5.20;;;;;;;31.43;29.26;99440.95;105741;1257;73668;-70
2023/05/26 10:05:34;;;;;;;6.20;5.00;;;;;;;31.65;29.59;99442.59;105546;1262;68446;-71
2023/05/26 10:08:01;;;;;;;6.80;4.90;;;;;;;31.88;29.53;99442.14;105725;1253;63965;-70
2023/05/26 10:10:29;;;;;;;10.50;5.00;;;;;;;31.93;29.48;99439.27;105543;1253;60520;-67
2023/05/26 10:12:56;;;;;;;9.50;5.50;;;;;;;31.97;29.18;99437.85;105547;1253;60624;-67
2023/05/26 10:15:23;;;;;;;8.70;6.60;;;;;;;31.90;29.07;99436.02;105661;1259;73611;-68
2023/05/26 10:17:50;;;;;;;8.50;5.60;;;;;;;31.92;29.55;99433.08;105699;1253;68739;-69
2023/05/26 10:20:17;;;;;;;7.20;5.80;;;;;;;31.70;29.41;99431.15;105639;1256;73043;-68
2023/05/26 10:23:09;;;;;;;10.60;5.70;;;;;;;31.65;29.48;99430.84;105648;1254;60542;-69
2023/05/26 10:26:01;;;;;;;10.20;5.40;;;;;;;29.26;32.59;99417.77;105714;1253;60454;-68
2023/05/26 10:28:39;;;;;;;11.40;5.40;;;;;;;27.93;34.83;99411.44;105729;1257;74072;-66
2023/05/26 10:31:06;;;;;;;6.00;5.30;;;;;;;27.67;35.15;99408.63;105718;1257;68595;-67
2023/05/26 10:33:41;;;;;;;11.40;5.50;;;;;;;27.60;36.51;99407.50;105696;1258;73111;-69
2023/05/26 10:36:13;;;;;;;7.90;5.50;;;;;;;27.71;35.66;99408.85;105733;1253;60514;-74
2023/05/26 10:38:53;;;;;;;9.50;5.80;;;;;;;27.70;35.95;99404.34;105723;1257;61354;-72
2023/05/26 10:41:34;;;;;;;6.40;5.80;;;;;;;27.76;35.45;99404.19;105749;1257;74073;-70
2023/05/26 10:44:01;;;;;;;17.70;12.80;;;;;;;28.17;34.61;99404.61;105693;1253;69052;-72
2023/05/26 10:46:39;;;;;;;47.10;33.00;;;;;;;29.77;33.23;99411.48;105636;1262;72501;-70
2023/05/26 10:49:26;;;;;;;12.60;7.70;;;;;;;30.04;32.67;99411.70;105943;1253;60422;-73
2023/05/26 10:51:54;;;;;;;12.20;8.80;;;;;;;30.04;31.77;99405.73;105745;1253;60486;-71
2023/05/26 10:54:23;;;;;;;8.50;7.70;;;;;;;30.06;30.88;99407.39;105758;1257;74797;-69
2023/05/26 10:56:51;;;;;;;7.60;6.60;;;;;;;30.39;31.52;99403.11;105760;1253;68585;-71
2023/05/26 10:59:21;;;;;;;8.40;7.60;;;;;;;30.66;30.94;99407.12;105679;1253;72896;-71
2023/05/26 11:01:50;;;;;;;8.30;5.90;;;;;;;30.92;30.51;99407.19;105543;1253;60674;-69
2023/05/26 11:04:17;;;;;;;67.20;54.80;;;;;;;30.92;30.28;99407.50;105707;1253;60462;-70
2023/05/26 11:06:44;;;;;;;35.40;29.50;;;;;;;31.14;30.70;99402.59;105706;1257;74203;-70
2023/05/26 11:09:13;;;;;;;34.80;31.00;;;;;;;31.42;29.31;99402.84;105695;1253;68785;-71
2023/05/26 11:11:49;;;;;;;58.70;51.40;;;;;;;31.38;29.64;99395.45;105658;1254;73047;-69
2023/05/26 11:14:28;;;;;;;42.70;38.20;;;;;;;29.15;30.94;99380.16;105684;1253;61098;-71
2023/05/26 11:16:58;;;;;;;11.80;10.40;;;;;;;28.90;30.57;99379.19;105737;1254;60527;-70
2023/05/26 11:19:36;;;;;;;8.20;5.20;;;;;;;28.91;30.80;99376.66;105753;1257;73727;-70
2023/05/26 11:22:08;;;;;;;4.90;4.40;;;;;;;28.86;29.79;99374.88;105733;1257;67398;-69
2023/05/26 11:24:35;;;;;;;5.40;4.20;;;;;;;29.10;29.56;99370.36;105735;1253;72580;-69
2023/05/26 11:27:03;;;;;;;4.70;4.10;;;;;;;29.29;29.53;99372.17;105702;1253;61583;-70
2023/05/26 11:29:30;;;;;;;5.90;3.90;;;;;;;30.77;28.05;99378.14;105741;1254;60366;-70